createdAt,value
2018-04-18T00:00:58.666Z,0.00
2018-04-18T00:01:58.664Z,0.00
2018-04-18T00:02:58.676Z,0.00
2018-04-18T00:03:58.735Z,0.00
2018-04-18T00:04:58.630Z,0.00
2018-04-18T00:05:58.494Z,0.00
2018-04-18T00:06:58.737Z,0.00
2018-04-18T00:07:58.535Z,0.00
2018-04-18T00:08:58.651Z,0.00
2018-04-18T00:09:58.627Z,0.00
2018-04-18T00:10:58.561Z,0.00
2018-04-18T00:11:58.515Z,0.00
2018-04-18T00:12:58.621Z,0.00
2018-04-18T00:13:58.536Z,0.00
2018-04-18T00:14:58.772Z,0.00
2018-04-18T00:15:58.757Z,0.00
2018-04-18T00:16:58.878Z,0.00
2018-04-18T00:17:58.810Z,0.00
2018-04-18T00:18:58.626Z,0.00
2018-04-18T00:19:58.646Z,0.00
2018-04-18T00:20:58.712Z,0.00
2018-04-18T00:21:58.628Z,0.00
2018-04-18T00:22:58.641Z,0.00
2018-04-18T00:23:58.572Z,0.00
2018-04-18T00:24:58.606Z,0.00
2018-04-18T00:25:58.572Z,0.00
2018-04-18T00:26:58.609Z,0.00
2018-04-18T00:27:58.592Z,0.00
2018-04-18T00:28:58.647Z,0.00
2018-04-18T00:29:58.582Z,0.00
2018-04-18T00:30:58.616Z,0.00
2018-04-18T00:31:58.652Z,0.00
2018-04-18T00:32:58.614Z,0.00
2018-04-18T00:33:58.648Z,0.00
2018-04-18T00:34:58.638Z,0.00
2018-04-18T00:35:58.648Z,0.00
2018-04-18T00:36:58.633Z,0.00
2018-04-18T00:37:58.644Z,0.00
2018-04-18T00:38:58.648Z,0.00
2018-04-18T00:39:58.707Z,0.00
2018-04-18T00:40:58.650Z,0.00
2018-04-18T00:41:58.675Z,0.00
2018-04-18T00:42:58.656Z,0.00
2018-04-18T00:43:58.781Z,0.00
2018-04-18T00:44:58.878Z,0.00
2018-04-18T00:49:53.403Z,0.00
2018-04-18T00:50:32.146Z,0.00
2018-04-18T00:51:32.255Z,0.00
2018-04-18T00:52:31.619Z,0.00
2018-04-18T00:53:31.637Z,0.00
2018-04-18T00:54:32.249Z,0.00
2018-04-18T00:55:32.237Z,0.00
2018-04-18T00:56:31.802Z,0.00
2018-04-18T00:57:31.748Z,0.00
2018-04-18T00:58:31.747Z,0.00
2018-04-18T00:59:31.825Z,0.00
2018-04-18T01:00:31.598Z,0.00
2018-04-18T01:01:31.760Z,0.00
2018-04-18T01:02:31.690Z,0.00
2018-04-18T01:03:31.613Z,0.00
2018-04-18T01:04:31.752Z,0.00
2018-04-18T01:05:32.156Z,0.00
2018-04-18T01:06:31.662Z,0.00
2018-04-18T01:07:31.871Z,0.00
2018-04-18T01:08:31.737Z,0.00
2018-04-18T01:09:31.717Z,0.00
2018-04-18T01:10:32.144Z,0.00
2018-04-18T01:11:31.850Z,0.00
2018-04-18T01:12:31.612Z,0.00
2018-04-18T01:13:31.645Z,0.00
2018-04-18T01:14:31.759Z,0.00
2018-04-18T01:15:31.677Z,0.00
2018-04-18T01:16:31.759Z,0.00
2018-04-18T01:17:31.694Z,0.00
2018-04-18T01:18:31.757Z,0.00
2018-04-18T01:19:31.774Z,0.00
2018-04-18T01:20:31.834Z,0.00
2018-04-18T01:21:31.707Z,0.00
2018-04-18T01:22:31.774Z,0.00
2018-04-18T01:23:31.794Z,0.00
2018-04-18T01:24:31.720Z,0.00
2018-04-18T01:25:31.727Z,0.00
2018-04-18T01:26:31.695Z,0.00
2018-04-18T01:27:31.818Z,0.00
2018-04-18T01:28:31.821Z,0.00
2018-04-18T01:29:31.785Z,0.00
2018-04-18T01:30:31.680Z,0.00
2018-04-18T01:31:31.842Z,0.00
2018-04-18T01:32:31.739Z,0.00
2018-04-18T01:33:31.779Z,0.00
2018-04-18T01:34:31.709Z,0.00
2018-04-18T01:35:31.833Z,0.00
2018-04-18T01:36:31.830Z,0.00
2018-04-18T01:37:31.756Z,0.00
2018-04-18T01:38:31.855Z,0.00
2018-04-18T01:39:31.811Z,0.00
2018-04-18T01:40:31.756Z,0.00
2018-04-18T01:41:31.758Z,0.00
2018-04-18T01:42:31.873Z,0.00
2018-04-18T01:43:31.851Z,0.00
2018-04-18T01:44:31.729Z,0.00
2018-04-18T01:45:31.826Z,0.00
2018-04-18T01:46:32.156Z,0.00
2018-04-18T01:47:31.761Z,0.00
2018-04-18T01:48:31.829Z,0.00
2018-04-18T01:49:31.801Z,0.00
2018-04-18T01:50:32.014Z,0.00
2018-04-18T01:51:31.790Z,0.00
2018-04-18T01:52:31.936Z,0.00
2018-04-18T01:53:31.843Z,0.00
2018-04-18T01:54:31.768Z,0.00
2018-04-18T01:55:31.846Z,0.00
2018-04-18T01:56:31.981Z,0.00
2018-04-18T01:57:31.799Z,0.00
2018-04-18T01:58:31.727Z,0.00
2018-04-18T01:59:31.780Z,0.00
2018-04-18T02:00:31.798Z,0.00
2018-04-18T02:01:31.747Z,0.00
2018-04-18T02:02:31.812Z,0.00
2018-04-18T02:03:31.768Z,0.00
2018-04-18T02:04:31.752Z,0.00
2018-04-18T02:05:31.732Z,0.00
2018-04-18T02:06:31.788Z,0.00
2018-04-18T02:07:31.735Z,0.00
2018-04-18T02:08:31.768Z,0.00
2018-04-18T02:09:31.807Z,0.00
2018-04-18T02:10:31.759Z,0.00
2018-04-18T02:11:31.797Z,0.00
2018-04-18T02:12:31.838Z,0.00
2018-04-18T02:13:31.831Z,0.00
2018-04-18T02:14:31.827Z,0.00
2018-04-18T02:15:31.781Z,0.00
2018-04-18T02:16:31.898Z,0.00
2018-04-18T02:17:31.915Z,0.00
2018-04-18T02:18:31.817Z,0.00
2018-04-18T02:19:31.877Z,0.00
2018-04-18T02:20:31.933Z,0.00
2018-04-18T02:21:31.895Z,0.00
2018-04-18T02:22:31.903Z,0.00
2018-04-18T02:23:31.898Z,0.00
2018-04-18T02:24:31.882Z,0.00
2018-04-18T02:25:31.916Z,0.00
2018-04-18T02:26:32.031Z,0.00
2018-04-18T02:27:31.923Z,0.00
2018-04-18T02:28:32.664Z,0.00
2018-04-18T02:29:31.824Z,0.00
2018-04-18T02:30:31.859Z,0.00
2018-04-18T02:31:31.858Z,0.00
2018-04-18T02:32:31.869Z,0.00
2018-04-18T02:33:31.952Z,0.00
2018-04-18T02:34:31.924Z,0.00
2018-04-18T02:35:31.919Z,0.00
2018-04-18T02:36:32.059Z,0.00
2018-04-18T02:37:31.881Z,0.00
2018-04-18T02:38:31.880Z,0.00
2018-04-18T02:39:31.855Z,0.00
2018-04-18T02:40:31.900Z,0.00
2018-04-18T02:41:31.868Z,0.00
2018-04-18T02:42:32.053Z,0.00
2018-04-18T02:43:32.670Z,0.00
2018-04-18T02:44:32.077Z,0.00
2018-04-18T02:45:31.860Z,0.00
2018-04-18T02:46:31.927Z,0.00
2018-04-18T02:47:31.825Z,0.00
2018-04-18T02:48:32.004Z,0.00
2018-04-18T02:49:31.910Z,0.00
2018-04-18T02:50:31.922Z,0.00
2018-04-18T02:51:31.861Z,0.00
2018-04-18T02:52:31.836Z,0.00
2018-04-18T02:53:31.921Z,0.00
2018-04-18T02:54:31.953Z,0.00
2018-04-18T02:55:31.863Z,0.00
2018-04-18T02:56:31.839Z,0.00
2018-04-18T02:57:31.849Z,0.00
2018-04-18T02:58:31.883Z,0.00
2018-04-18T02:59:31.956Z,0.00
2018-04-18T03:00:31.863Z,0.00
2018-04-18T03:01:31.907Z,0.00
2018-04-18T03:02:31.924Z,0.00
2018-04-18T03:03:31.953Z,0.00
2018-04-18T03:04:31.986Z,0.00
2018-04-18T03:05:31.901Z,0.00
2018-04-18T03:06:31.883Z,0.00
2018-04-18T03:07:31.934Z,0.00
2018-04-18T03:08:31.849Z,0.00
2018-04-18T03:09:31.928Z,0.00
2018-04-18T03:10:31.929Z,0.00
2018-04-18T03:11:31.877Z,0.00
2018-04-18T03:12:31.904Z,0.00
2018-04-18T03:13:31.976Z,0.00
2018-04-18T03:14:31.990Z,0.00
2018-04-18T03:15:32.004Z,0.00
2018-04-18T03:16:32.061Z,0.00
2018-04-18T03:17:31.985Z,0.00
2018-04-18T03:18:31.933Z,0.00
2018-04-18T03:19:31.967Z,0.00
2018-04-18T03:20:31.952Z,0.00
2018-04-18T03:21:31.922Z,0.00
2018-04-18T03:22:31.951Z,0.00
2018-04-18T03:23:31.930Z,0.00
2018-04-18T03:24:32.683Z,0.00
2018-04-18T03:25:31.891Z,0.00
2018-04-18T03:26:32.203Z,0.00
2018-04-18T03:27:31.975Z,0.00
2018-04-18T03:28:31.950Z,0.00
2018-04-18T03:29:32.046Z,0.00
2018-04-18T03:30:31.968Z,0.00
2018-04-18T03:31:32.003Z,0.00
2018-04-18T03:32:31.967Z,0.00
2018-04-18T03:33:31.944Z,0.00
2018-04-18T03:34:31.943Z,0.00
2018-04-18T03:35:31.989Z,0.00
2018-04-18T03:36:31.998Z,0.00
2018-04-18T03:37:31.941Z,0.00
2018-04-18T03:38:32.023Z,0.00
2018-04-18T03:39:31.967Z,0.00
2018-04-18T03:40:31.963Z,0.00
2018-04-18T03:41:31.970Z,0.00
2018-04-18T03:42:32.103Z,0.00
2018-04-18T03:43:31.996Z,0.00
2018-04-18T03:44:32.049Z,0.00
2018-04-18T03:45:31.995Z,0.00
2018-04-18T03:46:31.966Z,0.00
2018-04-18T03:47:32.195Z,0.00
2018-04-18T03:48:32.108Z,0.00
2018-04-18T03:49:32.134Z,0.00
2018-04-18T03:50:32.267Z,0.00
2018-04-18T03:51:32.025Z,0.00
2018-04-18T03:52:32.130Z,0.00
2018-04-18T03:53:31.963Z,0.00
2018-04-18T03:54:31.965Z,0.00
2018-04-18T03:55:32.162Z,0.00
2018-04-18T03:56:32.024Z,0.00
2018-04-18T03:57:32.073Z,0.00
2018-04-18T03:58:32.011Z,0.00
2018-04-18T03:59:32.058Z,0.00
2018-04-18T04:00:32.273Z,0.00
2018-04-18T04:01:32.162Z,0.00
2018-04-18T04:02:32.087Z,0.00
2018-04-18T04:03:32.170Z,0.00
2018-04-18T04:04:32.016Z,0.00
2018-04-18T04:05:32.101Z,0.00
2018-04-18T04:06:32.110Z,0.00
2018-04-18T04:07:32.300Z,0.00
2018-04-18T04:08:32.698Z,0.00
2018-04-18T04:09:32.135Z,0.00
2018-04-18T04:10:32.075Z,0.00
2018-04-18T04:11:32.270Z,0.00
2018-04-18T04:12:32.241Z,0.00
2018-04-18T04:13:32.133Z,0.00
2018-04-18T04:14:32.118Z,0.00
2018-04-18T04:15:32.101Z,0.00
2018-04-18T04:16:32.130Z,0.00
2018-04-18T04:17:32.144Z,0.00
2018-04-18T04:18:32.131Z,0.00
2018-04-18T04:19:32.084Z,0.00
2018-04-18T04:20:32.120Z,0.00
2018-04-18T04:21:32.009Z,0.00
2018-04-18T04:22:32.094Z,0.00
2018-04-18T04:23:32.049Z,0.00
2018-04-18T04:24:32.085Z,0.00
2018-04-18T04:25:32.109Z,5.63
2018-04-18T04:26:32.202Z,5.63
2018-04-18T04:27:32.118Z,5.63
2018-04-18T04:28:32.088Z,5.63
2018-04-18T04:29:32.134Z,5.63
2018-04-18T04:30:32.155Z,5.63
2018-04-18T04:31:32.175Z,5.63
2018-04-18T04:32:32.193Z,5.63
2018-04-18T04:33:32.217Z,5.63
2018-04-18T04:34:32.293Z,11.25
2018-04-18T04:35:32.252Z,11.25
2018-04-18T04:36:32.256Z,11.25
2018-04-18T04:37:32.186Z,11.25
2018-04-18T04:38:32.307Z,11.25
2018-04-18T04:39:32.204Z,11.25
2018-04-18T04:40:32.169Z,11.25
2018-04-18T04:41:32.247Z,16.88
2018-04-18T04:42:32.165Z,16.88
2018-04-18T04:43:32.342Z,16.88
2018-04-18T04:44:32.216Z,16.88
2018-04-18T04:45:32.151Z,16.88
2018-04-18T04:46:32.467Z,22.50
2018-04-18T04:47:32.192Z,22.50
2018-04-18T04:48:32.094Z,22.50
2018-04-18T04:49:32.200Z,22.50
2018-04-18T04:50:32.212Z,22.50
2018-04-18T04:51:32.204Z,22.50
2018-04-18T04:52:32.233Z,28.13
2018-04-18T04:53:32.165Z,28.13
2018-04-18T04:54:32.317Z,28.13
2018-04-18T04:55:32.179Z,28.13
2018-04-18T04:56:32.132Z,33.75
2018-04-18T04:57:32.237Z,33.75
2018-04-18T04:58:32.151Z,33.75
2018-04-18T04:59:32.545Z,33.75
2018-04-18T05:00:32.284Z,33.75
2018-04-18T05:01:32.153Z,39.38
2018-04-18T05:02:32.255Z,39.38
2018-04-18T05:03:32.694Z,39.38
2018-04-18T05:04:32.208Z,39.38
2018-04-18T05:05:32.133Z,39.38
2018-04-18T05:06:32.185Z,45.00
2018-04-18T05:07:32.138Z,45.00
2018-04-18T05:08:32.208Z,45.00
2018-04-18T05:09:32.141Z,45.00
2018-04-18T05:10:32.316Z,50.63
2018-04-18T05:11:32.168Z,50.63
2018-04-18T05:12:32.252Z,50.63
2018-04-18T05:13:32.277Z,50.63
2018-04-18T05:14:32.239Z,56.25
2018-04-18T05:15:32.188Z,56.25
2018-04-18T05:16:32.295Z,56.25
2018-04-18T05:17:32.274Z,56.25
2018-04-18T05:18:32.366Z,61.88
2018-04-18T05:19:32.375Z,61.88
2018-04-18T05:20:32.246Z,61.88
2018-04-18T05:21:32.298Z,67.50
2018-04-18T05:22:32.195Z,67.50
2018-04-18T05:23:32.259Z,73.13
2018-04-18T05:24:32.246Z,73.13
2018-04-18T05:25:32.198Z,73.13
2018-04-18T05:26:32.223Z,73.13
2018-04-18T05:27:32.238Z,78.75
2018-04-18T05:28:32.280Z,84.38
2018-04-18T05:29:32.344Z,90.00
2018-04-18T05:30:32.877Z,95.63
2018-04-18T05:31:32.259Z,95.63
2018-04-18T05:32:32.218Z,123.75
2018-04-18T05:33:32.305Z,146.25
2018-04-18T05:34:32.245Z,157.50
2018-04-18T05:35:32.295Z,168.75
2018-04-18T05:36:32.235Z,174.38
2018-04-18T05:37:32.234Z,174.38
2018-04-18T05:38:32.281Z,180.00
2018-04-18T05:39:32.226Z,185.63
2018-04-18T05:40:32.244Z,185.63
2018-04-18T05:41:32.269Z,185.63
2018-04-18T05:42:32.231Z,191.25
2018-04-18T05:43:32.295Z,196.88
2018-04-18T05:44:32.343Z,202.50
2018-04-18T05:45:32.179Z,208.13
2018-04-18T05:46:32.207Z,213.75
2018-04-18T05:47:32.261Z,219.38
2018-04-18T05:48:32.280Z,219.38
2018-04-18T05:49:32.418Z,202.50
2018-04-18T05:50:32.613Z,196.88
2018-04-18T05:51:32.890Z,208.13
2018-04-18T05:52:32.738Z,236.25
2018-04-18T05:53:33.089Z,241.88
2018-04-18T05:54:32.539Z,247.50
2018-04-18T05:55:32.496Z,247.50
2018-04-18T05:56:33.180Z,247.50
2018-04-18T05:57:33.197Z,247.50
2018-04-18T05:58:33.238Z,253.13
2018-04-18T05:59:32.233Z,264.38
2018-04-18T06:00:32.567Z,264.38
2018-04-18T06:01:32.728Z,270.00
2018-04-18T06:02:34.388Z,270.00
2018-04-18T06:03:32.545Z,275.63
2018-04-18T06:04:32.513Z,275.63
2018-04-18T06:05:32.534Z,281.25
2018-04-18T06:06:32.540Z,286.88
2018-04-18T06:07:32.325Z,286.88
2018-04-18T06:08:32.425Z,292.50
2018-04-18T06:09:32.380Z,292.50
2018-04-18T06:10:32.547Z,298.13
2018-04-18T06:11:32.559Z,303.75
2018-04-18T06:12:32.357Z,303.75
2018-04-18T06:13:32.377Z,286.88
2018-04-18T06:14:32.415Z,236.25
2018-04-18T06:15:32.488Z,208.13
2018-04-18T06:16:32.533Z,247.50
2018-04-18T06:17:32.380Z,303.75
2018-04-18T06:18:33.142Z,320.63
2018-04-18T06:19:32.433Z,331.88
2018-04-18T06:20:32.562Z,337.50
2018-04-18T06:21:37.392Z,343.13
2018-04-18T06:22:32.663Z,348.75
2018-04-18T06:23:35.081Z,354.38
2018-04-18T06:24:32.812Z,354.38
2018-04-18T06:25:32.493Z,348.75
2018-04-18T06:26:35.023Z,360.00
2018-04-18T06:27:34.213Z,365.63
2018-04-18T06:28:32.516Z,371.25
2018-04-18T06:29:32.659Z,371.25
2018-04-18T06:30:32.431Z,376.88
2018-04-18T06:31:35.756Z,365.63
2018-04-18T06:32:36.486Z,382.50
2018-04-18T06:33:34.158Z,388.13
2018-04-18T06:34:39.514Z,388.13
2018-04-18T06:35:35.130Z,393.75
2018-04-18T06:37:33.252Z,399.38
2018-04-18T06:38:32.686Z,405.00
2018-04-18T06:39:34.846Z,410.63
2018-04-18T06:40:33.251Z,410.63
2018-04-18T06:41:32.648Z,416.25
2018-04-18T06:42:32.969Z,427.50
2018-04-18T06:43:32.716Z,427.50
2018-04-18T06:44:36.298Z,433.13
2018-04-18T06:45:35.647Z,438.75
2018-04-18T06:46:32.811Z,438.75
2018-04-18T06:47:32.846Z,444.38
2018-04-18T06:48:35.764Z,450.00
2018-04-18T06:49:33.010Z,455.63
2018-04-18T06:50:35.848Z,461.25
2018-04-18T06:51:33.566Z,472.50
2018-04-18T06:52:34.727Z,478.13
2018-04-18T06:53:33.682Z,483.75
2018-04-18T06:54:32.848Z,483.75
2018-04-18T06:55:33.388Z,495.00
2018-04-18T06:56:32.698Z,495.00
2018-04-18T06:57:33.093Z,500.63
2018-04-18T06:58:39.832Z,500.63
2018-04-18T06:59:36.127Z,500.63
2018-04-18T07:00:39.914Z,506.25
2018-04-18T07:01:36.293Z,511.88
2018-04-18T07:03:35.771Z,523.13
2018-04-18T07:05:33.052Z,528.75
2018-04-18T07:06:41.318Z,528.75
2018-04-18T07:07:33.820Z,534.38
2018-04-18T07:08:38.367Z,534.38
2018-04-18T07:09:48.682Z,540.00
2018-04-18T07:11:33.815Z,556.88
2018-04-18T07:13:36.720Z,551.25
2018-04-18T07:14:35.652Z,551.25
2018-04-18T07:15:33.337Z,562.50
2018-04-18T07:16:33.152Z,562.50
2018-04-18T07:17:32.906Z,568.13
2018-04-18T07:18:32.980Z,568.13
2018-04-18T07:19:35.944Z,579.38
2018-04-18T07:20:33.104Z,579.38
2018-04-18T07:21:34.754Z,579.38
2018-04-18T07:22:36.563Z,585.00
2018-04-18T07:23:37.652Z,585.00
2018-04-18T07:26:54.223Z,590.63
2018-04-18T07:30:06.258Z,607.50
2018-04-18T07:31:06.159Z,613.13
2018-04-18T07:32:07.025Z,613.13
2018-04-18T07:33:06.216Z,618.75
2018-04-18T07:34:06.161Z,613.13
2018-04-18T07:35:06.215Z,613.13
2018-04-18T07:36:06.176Z,624.38
2018-04-18T07:37:06.211Z,618.75
2018-04-18T07:38:06.225Z,618.75
2018-04-18T07:39:06.222Z,624.38
2018-04-18T07:40:06.289Z,624.38
2018-04-18T07:41:06.283Z,630.00
2018-04-18T07:42:07.692Z,630.00
2018-04-18T07:43:06.328Z,635.63
2018-04-18T07:44:06.357Z,641.25
2018-04-18T07:45:07.049Z,646.88
2018-04-18T07:46:06.341Z,658.13
2018-04-18T07:47:06.412Z,658.13
2018-04-18T07:48:06.384Z,663.75
2018-04-18T07:49:06.368Z,675.00
2018-04-18T07:50:06.383Z,686.25
2018-04-18T07:51:06.476Z,686.25
2018-04-18T07:52:06.425Z,697.50
2018-04-18T07:53:06.417Z,697.50
2018-04-18T07:54:06.470Z,697.50
2018-04-18T07:55:06.468Z,697.50
2018-04-18T07:56:06.461Z,697.50
2018-04-18T07:57:06.532Z,703.13
2018-04-18T07:58:07.543Z,708.75
2018-04-18T07:59:06.583Z,708.75
2018-04-18T08:00:06.537Z,720.00
2018-04-18T08:01:06.570Z,714.38
2018-04-18T08:02:06.551Z,720.00
2018-04-18T08:03:06.624Z,725.63
2018-04-18T08:04:07.009Z,725.63
2018-04-18T08:05:07.559Z,736.88
2018-04-18T08:06:06.675Z,748.13
2018-04-18T08:07:06.651Z,753.75
2018-04-18T08:08:07.554Z,765.00
2018-04-18T08:09:07.320Z,770.63
2018-04-18T08:10:06.994Z,770.63
2018-04-18T08:11:06.787Z,781.88
2018-04-18T08:12:07.555Z,781.88
2018-04-18T08:13:06.780Z,793.13
2018-04-18T08:14:06.815Z,804.38
2018-04-18T08:15:06.794Z,815.63
2018-04-18T08:16:06.827Z,821.25
2018-04-18T08:17:06.822Z,826.88
2018-04-18T08:18:06.820Z,832.50
2018-04-18T08:19:06.869Z,849.38
2018-04-18T08:20:07.573Z,849.38
2018-04-18T08:21:06.898Z,860.63
2018-04-18T08:22:06.948Z,871.88
2018-04-18T08:23:06.926Z,877.50
2018-04-18T08:24:06.980Z,900.00
2018-04-18T08:25:07.078Z,900.00
2018-04-18T08:26:07.011Z,883.13
2018-04-18T08:27:07.000Z,888.75
2018-04-18T08:28:07.008Z,922.50
2018-04-18T08:29:07.002Z,894.38
2018-04-18T08:30:07.081Z,894.38
2018-04-18T08:31:07.045Z,911.25
2018-04-18T08:32:07.087Z,894.38
2018-04-18T08:33:07.082Z,933.75
2018-04-18T08:34:07.117Z,978.75
2018-04-18T08:35:07.128Z,984.38
2018-04-18T08:36:07.179Z,995.63
2018-04-18T08:37:07.167Z,1006.88
2018-04-18T08:38:07.186Z,1023.75
2018-04-18T08:39:08.073Z,1012.50
2018-04-18T08:40:07.701Z,1012.50
2018-04-18T08:41:07.343Z,1040.63
2018-04-18T08:42:07.269Z,1046.25
2018-04-18T08:43:07.291Z,1057.50
2018-04-18T08:44:07.359Z,1068.75
2018-04-18T08:45:07.327Z,1091.25
2018-04-18T08:46:07.321Z,1091.25
2018-04-18T08:47:08.122Z,1102.50
2018-04-18T08:48:07.403Z,1119.38
2018-04-18T08:49:07.569Z,1147.50
2018-04-18T08:50:07.408Z,1063.13
2018-04-18T08:51:07.444Z,1181.25
2018-04-18T08:52:07.477Z,1209.38
2018-04-18T08:53:08.085Z,1119.38
2018-04-18T08:54:07.459Z,1260.00
2018-04-18T08:55:07.502Z,1327.50
2018-04-18T08:56:08.386Z,1361.25
2018-04-18T08:57:07.567Z,1378.13
2018-04-18T08:58:08.527Z,1445.63
2018-04-18T08:59:07.628Z,1558.13
2018-04-18T09:00:07.651Z,1631.25
2018-04-18T09:01:07.690Z,1721.25
2018-04-18T09:02:07.847Z,1794.38
2018-04-18T09:03:07.677Z,1974.38
2018-04-18T09:04:08.133Z,2120.63
2018-04-18T09:05:07.815Z,2401.88
2018-04-18T09:06:07.730Z,2750.63
2018-04-18T09:07:07.958Z,3138.75
2018-04-18T09:08:07.738Z,3459.38
2018-04-18T09:09:08.592Z,3971.25
2018-04-18T09:10:07.780Z,4404.38
2018-04-18T09:11:07.814Z,4488.75
2018-04-18T09:12:07.947Z,4725.00
2018-04-18T09:13:07.859Z,5371.88
2018-04-18T09:14:07.874Z,5658.75
2018-04-18T09:15:08.603Z,5236.88
2018-04-18T09:16:07.957Z,4741.88
2018-04-18T09:17:07.986Z,4303.13
2018-04-18T09:18:07.937Z,4168.13
2018-04-18T09:19:08.035Z,4134.38
2018-04-18T09:20:08.014Z,3982.50
2018-04-18T09:21:08.012Z,3616.88
2018-04-18T09:22:08.182Z,3515.63
2018-04-18T09:23:08.032Z,3296.25
2018-04-18T09:24:08.968Z,3273.75
2018-04-18T09:25:08.183Z,3341.25
2018-04-18T09:26:08.134Z,3240.00
2018-04-18T09:27:08.147Z,3127.50
2018-04-18T09:28:08.150Z,3116.25
2018-04-18T09:29:08.188Z,3048.75
2018-04-18T09:30:08.182Z,3054.38
2018-04-18T09:31:08.282Z,2986.88
2018-04-18T09:32:09.124Z,2975.63
2018-04-18T09:33:08.253Z,3060.00
2018-04-18T09:34:08.364Z,2964.38
2018-04-18T09:35:08.287Z,2863.13
2018-04-18T09:36:08.402Z,2705.63
2018-04-18T09:37:08.365Z,2666.25
2018-04-18T09:38:08.366Z,2638.13
2018-04-18T09:39:08.435Z,2553.75
2018-04-18T09:40:08.401Z,2621.25
2018-04-18T09:41:08.453Z,2733.75
2018-04-18T09:42:08.526Z,2745.00
2018-04-18T09:43:08.462Z,2801.25
2018-04-18T09:44:08.521Z,2767.50
2018-04-18T09:45:08.508Z,2728.13
2018-04-18T09:46:08.546Z,2688.75
2018-04-18T09:47:08.630Z,2671.88
2018-04-18T09:48:08.610Z,2677.50
2018-04-18T09:49:08.637Z,2711.25
2018-04-18T09:50:08.653Z,2733.75
2018-04-18T09:51:08.716Z,2722.50
2018-04-18T09:52:08.668Z,2711.25
2018-04-18T09:53:08.698Z,2666.25
2018-04-18T09:54:08.712Z,2767.50
2018-04-18T09:55:08.740Z,2756.25
2018-04-18T09:56:08.758Z,2812.50
2018-04-18T09:57:09.038Z,2846.25
2018-04-18T09:58:08.807Z,2908.13
2018-04-18T09:59:08.881Z,2896.88
2018-04-18T10:00:08.853Z,2846.25
2018-04-18T10:01:08.887Z,2795.63
2018-04-18T10:02:08.891Z,2756.25
2018-04-18T10:03:09.007Z,2863.13
2018-04-18T10:04:09.629Z,3009.38
2018-04-18T10:05:08.963Z,3088.13
2018-04-18T10:10:48.531Z,3420.00
2018-04-18T10:11:46.533Z,3481.88
2018-04-18T10:12:46.533Z,3555.00
2018-04-18T10:13:46.538Z,3465.00
2018-04-18T10:14:45.640Z,3414.38
2018-04-18T10:15:45.663Z,3442.50
2018-04-18T10:16:45.705Z,3555.00
2018-04-18T10:17:45.700Z,3571.88
2018-04-18T10:18:45.715Z,3532.50
2018-04-18T10:19:45.752Z,3341.25
2018-04-18T10:20:45.779Z,3330.00
2018-04-18T10:21:45.855Z,3273.75
2018-04-18T10:22:45.837Z,3217.50
2018-04-18T10:23:45.851Z,3307.50
2018-04-18T10:24:45.871Z,3251.25
2018-04-18T10:25:45.880Z,3324.38
2018-04-18T10:26:45.953Z,3296.25
2018-04-18T10:27:45.935Z,3296.25
2018-04-18T10:28:46.540Z,3324.38
2018-04-18T10:31:01.547Z,3262.50
2018-04-18T10:31:46.019Z,3301.88
2018-04-18T10:32:46.043Z,3285.00
2018-04-18T10:33:46.059Z,3195.00
2018-04-18T10:34:46.098Z,3301.88
2018-04-18T10:35:46.133Z,3251.25
2018-04-18T10:36:46.131Z,3138.75
2018-04-18T10:37:46.181Z,3076.88
2018-04-18T10:38:46.201Z,2958.75
2018-04-18T10:39:46.229Z,2840.63
2018-04-18T10:40:46.234Z,2683.13
2018-04-18T10:41:46.278Z,2328.75
2018-04-18T10:42:46.277Z,2193.75
2018-04-18T10:43:46.291Z,2109.38
2018-04-18T10:44:46.313Z,2058.75
2018-04-18T10:45:46.514Z,1991.25
2018-04-18T10:46:46.357Z,1951.88
2018-04-18T10:47:46.383Z,1991.25
2018-04-18T10:48:46.417Z,1940.63
2018-04-18T10:49:46.434Z,1783.13
2018-04-18T10:50:46.470Z,1771.88
2018-04-18T10:51:46.512Z,1833.75
2018-04-18T10:52:46.523Z,1912.50
2018-04-18T10:53:46.527Z,2064.38
2018-04-18T10:54:46.555Z,3712.50
2018-04-18T10:55:46.570Z,4944.38
2018-04-18T10:56:46.601Z,4269.38
2018-04-18T10:57:46.631Z,4005.00
2018-04-18T10:58:46.659Z,3498.75
2018-04-18T10:59:46.681Z,3442.50
2018-04-18T11:00:46.691Z,3690.00
2018-04-18T11:01:46.693Z,4100.63
2018-04-18T11:02:46.758Z,4179.38
2018-04-18T11:05:18.934Z,3436.88
2018-04-18T11:06:18.919Z,1715.63
2018-04-18T11:07:18.939Z,416.25
2018-04-18T11:08:19.008Z,320.63
2018-04-18T11:09:18.981Z,315.00
2018-04-18T11:10:18.982Z,309.38
2018-04-18T11:11:19.040Z,303.75
2018-04-18T11:12:19.033Z,303.75
2018-04-18T11:13:19.123Z,298.13
2018-04-18T11:14:19.096Z,292.50
2018-04-18T11:15:19.116Z,292.50
2018-04-18T11:16:19.137Z,286.88
2018-04-18T11:17:19.110Z,286.88
2018-04-18T11:18:19.207Z,286.88
2018-04-18T11:19:19.168Z,286.88
2018-04-18T11:20:19.210Z,281.25
2018-04-18T11:21:19.268Z,281.25
2018-04-18T11:22:19.223Z,281.25
2018-04-18T11:23:19.246Z,281.25
2018-04-18T11:24:19.272Z,281.25
2018-04-18T11:25:19.276Z,281.25
2018-04-18T11:26:19.257Z,281.25
2018-04-18T11:27:19.288Z,281.25
2018-04-18T11:28:19.318Z,281.25
2018-04-18T11:29:19.425Z,275.63
2018-04-18T11:30:19.331Z,275.63
2018-04-18T11:31:19.324Z,270.00
2018-04-18T11:32:19.338Z,258.75
2018-04-18T11:33:19.357Z,258.75
2018-04-18T11:34:19.384Z,253.13
2018-04-18T11:35:19.372Z,247.50
2018-04-18T11:36:19.407Z,241.88
2018-04-18T11:37:19.426Z,241.88
2018-04-18T11:38:19.469Z,236.25
2018-04-18T11:39:19.427Z,236.25
2018-04-18T11:40:19.620Z,230.63
2018-04-18T11:41:19.580Z,230.63
2018-04-18T11:42:20.376Z,230.63
2018-04-18T11:43:19.622Z,230.63
2018-04-18T11:44:19.500Z,230.63
2018-04-18T11:45:19.764Z,230.63
2018-04-18T11:46:19.618Z,236.25
2018-04-18T11:47:49.878Z,236.25
2018-04-18T11:48:21.394Z,236.25
2018-04-18T11:49:20.366Z,236.25
2018-04-18T11:50:19.612Z,236.25
2018-04-18T11:51:19.665Z,241.88
2018-04-18T11:52:19.683Z,253.13
2018-04-18T11:53:19.792Z,253.13
2018-04-18T11:54:19.624Z,258.75
2018-04-18T11:55:19.664Z,253.13
2018-04-18T11:56:20.506Z,258.75
2018-04-18T11:57:19.663Z,253.13
2018-04-18T11:58:19.670Z,253.13
2018-04-18T11:59:19.690Z,247.50
2018-04-18T12:00:19.681Z,241.88
2018-04-18T12:01:19.701Z,236.25
2018-04-18T12:02:19.743Z,236.25
2018-04-18T12:03:19.739Z,236.25
2018-04-18T12:04:19.745Z,230.63
2018-04-18T12:05:19.717Z,236.25
2018-04-18T12:06:20.397Z,230.63
2018-04-18T12:07:20.376Z,236.25
2018-04-18T12:08:19.798Z,230.63
2018-04-18T12:09:19.779Z,230.63
2018-04-18T12:10:19.847Z,236.25
2018-04-18T12:11:19.803Z,236.25
2018-04-18T12:12:21.521Z,236.25
2018-04-18T12:13:19.944Z,236.25
2018-04-18T12:14:19.871Z,236.25
2018-04-18T12:15:20.047Z,236.25
2018-04-18T12:16:19.908Z,230.63
2018-04-18T12:17:19.917Z,225.00
2018-04-18T12:18:19.902Z,225.00
2018-04-18T12:19:19.911Z,219.38
2018-04-18T12:20:19.943Z,219.38
2018-04-18T12:21:20.885Z,219.38
2018-04-18T12:22:20.024Z,219.38
2018-04-18T12:23:19.907Z,219.38
2018-04-18T12:24:20.897Z,219.38
2018-04-18T12:25:21.383Z,213.75
2018-04-18T12:26:20.010Z,213.75
2018-04-18T12:27:20.048Z,213.75
2018-04-18T12:28:20.038Z,213.75
2018-04-18T12:29:20.000Z,213.75
2018-04-18T12:30:20.085Z,213.75
2018-04-18T12:31:20.946Z,213.75
2018-04-18T12:32:20.891Z,208.13
2018-04-18T12:33:20.007Z,208.13
2018-04-18T12:34:20.232Z,208.13
2018-04-18T12:35:20.895Z,208.13
2018-04-18T12:36:20.119Z,219.38
2018-04-18T12:37:21.066Z,219.38
2018-04-18T12:38:20.158Z,219.38
2018-04-18T12:39:20.149Z,219.38
2018-04-18T12:40:20.095Z,219.38
2018-04-18T12:41:20.090Z,213.75
2018-04-18T12:42:20.099Z,213.75
2018-04-18T12:43:20.135Z,213.75
2018-04-18T12:44:20.114Z,213.75
2018-04-18T12:45:20.142Z,213.75
2018-04-18T12:46:20.199Z,213.75
2018-04-18T12:47:20.558Z,213.75
2018-04-18T12:48:20.149Z,213.75
2018-04-18T12:49:20.364Z,208.13
2018-04-18T12:50:20.148Z,208.13
2018-04-18T12:51:20.184Z,202.50
2018-04-18T12:52:20.206Z,202.50
2018-04-18T12:53:20.990Z,202.50
2018-04-18T12:54:20.239Z,202.50
2018-04-18T12:55:20.230Z,202.50
2018-04-18T12:56:20.232Z,196.88
2018-04-18T12:57:20.296Z,196.88
2018-04-18T12:58:20.247Z,202.50
2018-04-18T12:59:20.246Z,196.88
2018-04-18T13:00:20.255Z,196.88
2018-04-18T13:01:20.258Z,191.25
2018-04-18T13:02:20.272Z,191.25
2018-04-18T13:03:20.286Z,196.88